Time;durP1;ratioP1;P1;durP2;ratioP2;P2;SDS_P1;SDS_P2;PMS_P1;PMS_P2;Temp;Humidity;BMP_temperature;BMP_pressure;BME280_temperature;BME280_humidity;BME280_pressure;Samples;Min_cycle;Max_cycle;Signal;HPM_P1;HPM_P2
2022/03/18 00:00:25;;;;;;;5.78;3.65;;;;;;;;;;5096717;28;20198;-66
2022/03/18 00:02:53;;;;;;;14.93;4.55;;;;;;;;;;5096941;28;20701;-65
2022/03/18 00:05:21;;;;;;;12.43;3.20;;;;;;;;;;5096631;28;20202;-66
2022/03/18 00:07:48;;;;;;;11.18;4.07;;;;;;;;;;5096501;28;20209;-65
2022/03/18 00:10:18;;;;;;;15.25;4.28;;;;;;;;;;5096479;28;20190;-65
2022/03/18 00:12:45;;;;;;;11.77;4.30;;;;;;;;;;5096582;28;20194;-65
2022/03/18 00:15:14;;;;;;;11.88;4.10;;;;;;;;;;5096310;28;20272;-66
2022/03/18 00:17:41;;;;;;;7.78;3.75;;;;;;;;;;5095632;28;20199;-67
2022/03/18 00:20:09;;;;;;;10.65;3.85;;;;;;;;;;5096207;28;20284;-66
2022/03/18 00:22:37;;;;;;;10.82;4.00;;;;;;;;;;5096348;28;20549;-66
2022/03/18 00:25:06;;;;;;;10.18;4.10;;;;;;;;;;5096341;28;20194;-66
2022/03/18 00:27:35;;;;;;;7.57;3.80;;;;;;;;;;5096157;28;20195;-66
2022/03/18 00:30:02;;;;;;;11.05;4.45;;;;;;;;;;5095867;28;20200;-66
2022/03/18 00:32:30;;;;;;;8.85;4.80;;;;;;;;;;5096092;28;20197;-66
2022/03/18 00:34:57;;;;;;;7.70;3.75;;;;;;;;;;5095731;28;20215;-66
2022/03/18 00:37:24;;;;;;;12.48;4.55;;;;;;;;;;5096053;28;20195;-67
2022/03/18 00:39:51;;;;;;;10.80;4.55;;;;;;;;;;5095715;28;20191;-67
2022/03/18 00:42:19;;;;;;;6.93;3.60;;;;;;;;;;5095577;28;20705;-67
2022/03/18 00:44:48;;;;;;;11.27;4.20;;;;;;;;;;5095621;28;20655;-66
2022/03/18 00:52:45;;;;;;;9.23;4.15;;;;;;;;;;5095531;28;20540;-67
2022/03/18 00:55:12;;;;;;;12.77;4.95;;;;;;;;;;5095667;28;20588;-66
2022/03/18 00:57:39;;;;;;;11.82;4.72;;;;;;;;;;5095219;28;20198;-66
2022/03/18 01:00:08;;;;;;;9.02;5.13;;;;;;;;;;5095588;28;20198;-66
2022/03/18 01:02:35;;;;;;;8.35;4.78;;;;;;;;;;5095637;28;20197;-67
2022/03/18 01:05:02;;;;;;;9.70;5.10;;;;;;;;;;5095443;28;20203;-67
2022/03/18 01:07:30;;;;;;;13.02;4.88;;;;;;;;;;5095405;28;20199;-67
2022/03/18 01:09:57;;;;;;;7.70;4.55;;;;;;;;;;5095102;28;20204;-67
2022/03/18 01:12:25;;;;;;;9.07;5.22;;;;;;;;;;5094949;28;20648;-67
2022/03/18 01:14:52;;;;;;;13.18;4.50;;;;;;;;;;5095424;28;20218;-67
2022/03/18 01:17:21;;;;;;;6.45;4.05;;;;;;;;;;5095299;28;20192;-67
2022/03/18 01:19:48;;;;;;;10.00;4.05;;;;;;;;;;5095335;28;20205;-67
2022/03/18 01:22:15;;;;;;;10.55;4.85;;;;;;;;;;5095506;28;20201;-67
2022/03/18 01:24:43;;;;;;;10.50;4.53;;;;;;;;;;5095513;28;20210;-67
2022/03/18 01:27:10;;;;;;;11.23;5.00;;;;;;;;;;5094743;28;20284;-67
2022/03/18 01:29:38;;;;;;;12.50;5.05;;;;;;;;;;5095055;28;20229;-67
2022/03/18 01:32:05;;;;;;;8.57;4.95;;;;;;;;;;5094907;28;20297;-67
2022/03/18 01:34:34;;;;;;;10.48;5.13;;;;;;;;;;5095374;28;20237;-67
2022/03/18 01:37:01;;;;;;;14.88;4.45;;;;;;;;;;5095167;28;20206;-67
2022/03/18 01:39:28;;;;;;;9.65;4.50;;;;;;;;;;5095276;28;20193;-67
2022/03/18 01:41:56;;;;;;;9.00;3.97;;;;;;;;;;5094716;28;20201;-67
2022/03/18 01:44:23;;;;;;;10.13;5.00;;;;;;;;;;5094769;28;20200;-67
2022/03/18 01:46:50;;;;;;;8.45;5.20;;;;;;;;;;5094948;28;20202;-67
2022/03/18 01:49:17;;;;;;;7.85;4.47;;;;;;;;;;5094615;28;20190;-66
2022/03/18 01:51:46;;;;;;;9.70;4.72;;;;;;;;;;5094946;28;20188;-67
2022/03/18 01:56:59;;;;;;;9.15;4.82;;;;;;;;;;5094275;28;20189;-67
2022/03/18 01:59:26;;;;;;;10.18;4.80;;;;;;;;;;5095005;28;20195;-66
2022/03/18 02:01:53;;;;;;;9.45;4.85;;;;;;;;;;5094997;28;20199;-67
2022/03/18 02:04:21;;;;;;;11.95;4.90;;;;;;;;;;5094080;28;20197;-66
2022/03/18 02:06:49;;;;;;;12.18;4.00;;;;;;;;;;5093957;28;20231;-67
2022/03/18 02:09:16;;;;;;;10.80;5.30;;;;;;;;;;5094289;28;20201;-67
2022/03/18 02:11:44;;;;;;;7.03;4.57;;;;;;;;;;5094161;28;20560;-67
2022/03/18 02:14:11;;;;;;;12.95;4.70;;;;;;;;;;5094635;28;20200;-67
2022/03/18 02:16:40;;;;;;;8.50;4.30;;;;;;;;;;5094148;28;20210;-67
2022/03/18 02:19:07;;;;;;;12.93;6.47;;;;;;;;;;5093728;28;20197;-67
2022/03/18 02:21:36;;;;;;;6.90;5.03;;;;;;;;;;5093679;28;20719;-67
2022/03/18 02:24:05;;;;;;;9.15;5.00;;;;;;;;;;5094013;28;20198;-67
2022/03/18 02:26:32;;;;;;;16.80;4.95;;;;;;;;;;5094382;28;20300;-67
2022/03/18 02:29:00;;;;;;;9.68;5.10;;;;;;;;;;5093814;28;20594;-67
2022/03/18 02:31:30;;;;;;;18.02;4.75;;;;;;;;;;5093573;28;20194;-67
2022/03/18 02:33:57;;;;;;;12.27;5.03;;;;;;;;;;5093574;28;20183;-67
2022/03/18 02:36:24;;;;;;;8.90;4.90;;;;;;;;;;5094541;28;20244;-66
2022/03/18 02:38:52;;;;;;;8.75;5.57;;;;;;;;;;5093673;28;20190;-67
2022/03/18 02:41:21;;;;;;;13.60;4.60;;;;;;;;;;5093428;28;20221;-67
2022/03/18 02:43:48;;;;;;;12.18;5.20;;;;;;;;;;5093886;28;20281;-67
2022/03/18 02:46:16;;;;;;;8.88;5.22;;;;;;;;;;5093766;28;20193;-67
2022/03/18 02:48:43;;;;;;;18.20;5.55;;;;;;;;;;5093306;28;20199;-67
2022/03/18 02:51:10;;;;;;;12.68;5.88;;;;;;;;;;5093359;28;20222;-67
2022/03/18 02:53:38;;;;;;;12.50;5.65;;;;;;;;;;5093574;28;20202;-68
2022/03/18 02:56:06;;;;;;;15.48;4.47;;;;;;;;;;5093304;28;20217;-67
2022/03/18 02:58:35;;;;;;;9.68;4.60;;;;;;;;;;5093193;28;20233;-67
2022/03/18 03:01:02;;;;;;;12.27;5.88;;;;;;;;;;5094447;28;20195;-67
2022/03/18 03:03:29;;;;;;;11.07;5.20;;;;;;;;;;5093157;28;20228;-67
2022/03/18 03:08:42;;;;;;;6.60;4.45;;;;;;;;;;5093437;28;20223;-68
2022/03/18 03:11:09;;;;;;;11.77;4.47;;;;;;;;;;5093700;28;20267;-67
2022/03/18 03:13:38;;;;;;;10.55;5.15;;;;;;;;;;5093433;28;20200;-67
2022/03/18 03:16:06;;;;;;;9.57;4.75;;;;;;;;;;5093480;28;20223;-68
2022/03/18 03:18:33;;;;;;;11.40;4.70;;;;;;;;;;5093207;28;20675;-68
2022/03/18 03:21:00;;;;;;;12.65;5.13;;;;;;;;;;5093593;28;20203;-67
2022/03/18 03:23:27;;;;;;;17.42;6.10;;;;;;;;;;5093074;28;20205;-67
2022/03/18 03:25:55;;;;;;;11.32;5.30;;;;;;;;;;5093525;28;20559;-67
2022/03/18 03:28:22;;;;;;;11.80;4.70;;;;;;;;;;5093060;28;20754;-67
2022/03/18 03:30:51;;;;;;;8.77;4.78;;;;;;;;;;5093036;28;20194;-68
2022/03/18 03:33:18;;;;;;;8.48;5.40;;;;;;;;;;5095167;28;20199;-67
2022/03/18 03:35:46;;;;;;;12.75;5.40;;;;;;;;;;5096936;28;20309;-68
2022/03/18 03:38:14;;;;;;;15.98;6.25;;;;;;;;;;5097556;28;20228;-68
2022/03/18 03:40:42;;;;;;;13.88;5.60;;;;;;;;;;5097172;28;20201;-67
2022/03/18 03:43:09;;;;;;;18.55;5.45;;;;;;;;;;5097009;28;20194;-67
2022/03/18 03:45:37;;;;;;;9.00;5.82;;;;;;;;;;5097070;28;20194;-66
2022/03/18 03:48:06;;;;;;;10.05;6.43;;;;;;;;;;5097305;28;20554;-66
2022/03/18 03:50:33;;;;;;;6.72;4.97;;;;;;;;;;5096991;28;20249;-66
2022/03/18 03:53:00;;;;;;;11.65;5.53;;;;;;;;;;5097260;28;20202;-66
2022/03/18 03:55:28;;;;;;;10.55;5.50;;;;;;;;;;5096806;28;20217;-67
2022/03/18 03:57:55;;;;;;;11.73;6.20;;;;;;;;;;5096520;28;20190;-66
2022/03/18 04:00:22;;;;;;;8.57;5.70;;;;;;;;;;5096751;28;20280;-67
2022/03/18 04:02:49;;;;;;;10.65;6.20;;;;;;;;;;5096434;28;20193;-67
2022/03/18 04:05:18;;;;;;;12.90;5.15;;;;;;;;;;5096254;28;20205;-67
2022/03/18 04:07:45;;;;;;;11.27;6.20;;;;;;;;;;5096656;28;20300;-67
2022/03/18 04:10:14;;;;;;;14.82;6.35;;;;;;;;;;5096604;28;20194;-67
2022/03/18 04:12:43;;;;;;;14.35;6.20;;;;;;;;;;5096590;28;20194;-66
2022/03/18 04:15:10;;;;;;;15.60;5.93;;;;;;;;;;5096376;28;20224;-67
2022/03/18 04:17:38;;;;;;;9.75;4.97;;;;;;;;;;5096414;28;20216;-67
2022/03/18 04:20:05;;;;;;;11.90;5.78;;;;;;;;;;5096093;28;20193;-67
2022/03/18 04:22:34;;;;;;;10.95;5.68;;;;;;;;;;5096079;28;20256;-66
2022/03/18 04:25:01;;;;;;;13.63;6.72;;;;;;;;;;5095876;28;20292;-66
2022/03/18 04:27:29;;;;;;;15.52;6.85;;;;;;;;;;5096229;28;20742;-66
2022/03/18 04:29:56;;;;;;;13.27;6.78;;;;;;;;;;5096160;28;20219;-67
2022/03/18 04:32:23;;;;;;;14.27;5.88;;;;;;;;;;5096177;28;20193;-66
2022/03/18 04:34:51;;;;;;;12.02;6.95;;;;;;;;;;5096194;28;20196;-67
2022/03/18 04:37:18;;;;;;;8.98;5.50;;;;;;;;;;5096118;28;20205;-67
2022/03/18 04:39:47;;;;;;;8.65;6.32;;;;;;;;;;5096171;28;20194;-67
2022/03/18 04:42:14;;;;;;;13.68;6.70;;;;;;;;;;5095653;28;20194;-66
2022/03/18 04:44:41;;;;;;;10.20;6.30;;;;;;;;;;5095207;28;20194;-66
2022/03/18 04:47:09;;;;;;;7.68;6.97;;;;;;;;;;5095989;28;20200;-66
2022/03/18 04:49:36;;;;;;;8.55;6.90;;;;;;;;;;5095552;28;20233;-66
2022/03/18 04:52:03;;;;;;;12.52;6.60;;;;;;;;;;5096103;28;20183;-67
2022/03/18 04:54:30;;;;;;;13.07;6.40;;;;;;;;;;5096030;28;20191;-66
2022/03/18 04:57:18;;;;;;;11.15;6.60;;;;;;;;;;5095610;28;20217;-66
2022/03/18 04:59:45;;;;;;;10.90;5.97;;;;;;;;;;5095380;28;20277;-66
2022/03/18 05:02:14;;;;;;;8.05;6.05;;;;;;;;;;5096102;28;20190;-66
2022/03/18 05:04:42;;;;;;;11.23;6.10;;;;;;;;;;5095517;28;20229;-66
2022/03/18 05:07:11;;;;;;;9.90;5.78;;;;;;;;;;5095163;28;20205;-66
2022/03/18 05:09:39;;;;;;;11.15;6.15;;;;;;;;;;5095284;28;20250;-68
2022/03/18 05:12:09;;;;;;;8.93;5.68;;;;;;;;;;5095903;28;20194;-65
2022/03/18 05:14:37;;;;;;;12.98;5.95;;;;;;;;;;5095003;28;20632;-69
2022/03/18 05:17:04;;;;;;;10.07;6.10;;;;;;;;;;5095241;28;20221;-67
2022/03/18 05:19:31;;;;;;;13.70;7.75;;;;;;;;;;5095212;28;20190;-67
2022/03/18 05:21:58;;;;;;;12.20;6.80;;;;;;;;;;5095067;28;20201;-68
2022/03/18 05:24:26;;;;;;;11.90;6.47;;;;;;;;;;5094810;28;20669;-68
2022/03/18 05:26:54;;;;;;;10.70;6.30;;;;;;;;;;5095057;28;20662;-68
2022/03/18 05:29:22;;;;;;;16.08;6.40;;;;;;;;;;5094631;28;20203;-68
2022/03/18 05:31:50;;;;;;;9.07;6.72;;;;;;;;;;5094738;28;20659;-67
2022/03/18 05:34:17;;;;;;;12.63;7.75;;;;;;;;;;5094705;28;20689;-67
2022/03/18 05:36:45;;;;;;;9.77;6.40;;;;;;;;;;5094791;28;20213;-68
2022/03/18 05:39:12;;;;;;;9.80;5.65;;;;;;;;;;5094611;28;20205;-68
2022/03/18 05:41:39;;;;;;;7.80;6.43;;;;;;;;;;5094411;28;20681;-67
2022/03/18 05:44:07;;;;;;;11.07;6.35;;;;;;;;;;5094534;28;20201;-68
2022/03/18 05:46:35;;;;;;;12.23;6.05;;;;;;;;;;5094345;28;20758;-68
2022/03/18 05:49:03;;;;;;;10.95;6.82;;;;;;;;;;5094351;28;20189;-67
2022/03/18 05:51:31;;;;;;;9.35;6.10;;;;;;;;;;5094528;28;20208;-68
2022/03/18 05:53:58;;;;;;;14.30;7.95;;;;;;;;;;5095107;28;20205;-68
2022/03/18 05:59:11;;;;;;;12.85;8.13;;;;;;;;;;5094343;28;20181;-68
2022/03/18 06:01:41;;;;;;;14.15;6.85;;;;;;;;;;5094090;28;20193;-68
2022/03/18 06:04:10;;;;;;;14.55;8.75;;;;;;;;;;5094477;28;20198;-68
2022/03/18 06:06:38;;;;;;;13.45;6.93;;;;;;;;;;5094363;28;20202;-68
2022/03/18 06:11:51;;;;;;;10.88;7.60;;;;;;;;;;5094046;28;20187;-67
2022/03/18 06:14:18;;;;;;;9.40;6.57;;;;;;;;;;5094009;28;20193;-67
2022/03/18 06:16:47;;;;;;;11.00;7.47;;;;;;;;;;5094142;28;20232;-67
2022/03/18 06:19:15;;;;;;;14.73;7.82;;;;;;;;;;5094109;28;20191;-67
2022/03/18 06:21:43;;;;;;;13.95;8.00;;;;;;;;;;5094044;28;20193;-67
2022/03/18 06:24:10;;;;;;;15.38;7.68;;;;;;;;;;5094103;28;20205;-66
2022/03/18 06:26:37;;;;;;;14.95;9.20;;;;;;;;;;5093809;28;20220;-67
2022/03/18 06:29:04;;;;;;;13.73;7.00;;;;;;;;;;5093713;28;20193;-66
2022/03/18 06:31:32;;;;;;;23.55;10.32;;;;;;;;;;5093500;28;20194;-67
2022/03/18 06:34:00;;;;;;;12.98;7.85;;;;;;;;;;5093907;28;20198;-67
2022/03/18 06:36:28;;;;;;;11.68;8.18;;;;;;;;;;5093409;28;20311;-67
2022/03/18 06:38:55;;;;;;;15.77;8.85;;;;;;;;;;5093781;28;20194;-68
2022/03/18 06:41:22;;;;;;;11.35;8.25;;;;;;;;;;5093699;28;20239;-67
2022/03/18 06:43:49;;;;;;;17.48;8.65;;;;;;;;;;5093707;28;20197;-67
2022/03/18 06:46:17;;;;;;;12.13;8.20;;;;;;;;;;5093354;28;20233;-68
2022/03/18 06:48:44;;;;;;;19.55;9.40;;;;;;;;;;5094347;28;20194;-68
2022/03/18 06:51:13;;;;;;;15.18;9.07;;;;;;;;;;5093995;28;20552;-68
2022/03/18 06:53:40;;;;;;;13.95;8.48;;;;;;;;;;5093722;28;20404;-68
2022/03/18 06:56:08;;;;;;;35.00;18.00;;;;;;;;;;5093214;28;20227;-68
2022/03/18 06:58:36;;;;;;;20.08;13.02;;;;;;;;;;5093417;28;20203;-68
2022/03/18 07:01:03;;;;;;;17.77;9.93;;;;;;;;;;5093955;28;20199;-67
2022/03/18 07:03:30;;;;;;;17.23;9.73;;;;;;;;;;5093633;28;20201;-68
2022/03/18 07:05:57;;;;;;;21.35;10.20;;;;;;;;;;5093197;28;20199;-68
2022/03/18 07:08:26;;;;;;;23.15;10.27;;;;;;;;;;5098002;28;20288;-67
2022/03/18 07:10:53;;;;;;;19.45;11.95;;;;;;;;;;5097290;28;20669;-68
2022/03/18 07:13:21;;;;;;;17.40;10.30;;;;;;;;;;5097354;28;20201;-67
2022/03/18 07:15:48;;;;;;;31.08;11.65;;;;;;;;;;5098000;28;20220;-67
2022/03/18 07:18:14;;;;;;;19.50;12.23;;;;;;;;;;5097317;28;20200;-67
2022/03/18 07:20:41;;;;;;;27.92;9.48;;;;;;;;;;5097303;28;20244;-67
2022/03/18 07:23:09;;;;;;;12.15;9.35;;;;;;;;;;5097353;28;20206;-68
2022/03/18 07:25:39;;;;;;;17.00;10.02;;;;;;;;;;5097858;28;20216;-68
2022/03/18 07:28:08;;;;;;;19.33;9.63;;;;;;;;;;5097031;28;20195;-68
2022/03/18 07:30:36;;;;;;;14.15;8.80;;;;;;;;;;5097599;28;20190;-68
2022/03/18 07:33:03;;;;;;;16.98;8.48;;;;;;;;;;5097316;28;20196;-68
2022/03/18 07:35:30;;;;;;;13.57;7.97;;;;;;;;;;5096934;28;20659;-68
2022/03/18 07:37:58;;;;;;;12.43;7.43;;;;;;;;;;5097067;28;20246;-68
2022/03/18 07:40:25;;;;;;;9.60;8.02;;;;;;;;;;5097189;28;20196;-68
2022/03/18 07:42:54;;;;;;;11.88;7.40;;;;;;;;;;5097157;28;20191;-68
2022/03/18 07:45:23;;;;;;;12.35;7.45;;;;;;;;;;5097061;28;20217;-67
2022/03/18 07:47:50;;;;;;;19.33;8.63;;;;;;;;;;5096597;28;20241;-68
2022/03/18 07:50:21;;;;;;;18.48;8.05;;;;;;;;;;5096747;28;20231;-68
2022/03/18 07:52:49;;;;;;;14.90;8.90;;;;;;;;;;5097055;28;20215;-68
2022/03/18 07:55:18;;;;;;;24.08;8.63;;;;;;;;;;5096850;28;20536;-67
2022/03/18 07:57:45;;;;;;;17.00;10.07;;;;;;;;;;5096425;28;20212;-68
2022/03/18 08:00:15;;;;;;;15.40;9.27;;;;;;;;;;5096975;28;20652;-69
2022/03/18 08:02:43;;;;;;;13.57;7.93;;;;;;;;;;5097320;28;20201;-68
2022/03/18 08:05:10;;;;;;;10.48;6.68;;;;;;;;;;5096402;28;20199;-67
2022/03/18 08:07:38;;;;;;;11.68;6.63;;;;;;;;;;5096572;28;20556;-68
2022/03/18 08:10:06;;;;;;;15.82;6.80;;;;;;;;;;5096279;28;20228;-67
2022/03/18 08:12:33;;;;;;;12.63;6.63;;;;;;;;;;5096565;28;20207;-68
2022/03/18 08:15:01;;;;;;;8.98;6.53;;;;;;;;;;5096232;28;20696;-67
2022/03/18 08:17:30;;;;;;;14.68;6.55;;;;;;;;;;5095958;28;20226;-68
2022/03/18 08:19:57;;;;;;;9.50;5.95;;;;;;;;;;5095808;28;20640;-68
2022/03/18 08:22:25;;;;;;;14.18;5.97;;;;;;;;;;5096406;28;20553;-68
2022/03/18 08:24:52;;;;;;;12.55;5.15;;;;;;;;;;5096318;28;20191;-68
2022/03/18 08:27:20;;;;;;;7.80;4.90;;;;;;;;;;5096271;28;20203;-68
2022/03/18 08:29:47;;;;;;;12.27;5.50;;;;;;;;;;5095862;28;20192;-68
2022/03/18 08:32:16;;;;;;;15.32;5.13;;;;;;;;;;5096013;28;20195;-68
2022/03/18 08:34:45;;;;;;;19.75;5.43;;;;;;;;;;5095798;28;20194;-68
2022/03/18 08:37:12;;;;;;;13.95;5.93;;;;;;;;;;5095829;28;20309;-68
2022/03/18 08:39:41;;;;;;;11.13;5.55;;;;;;;;;;5095604;28;20199;-68
2022/03/18 08:42:08;;;;;;;11.80;5.47;;;;;;;;;;5095587;28;20198;-68
2022/03/18 08:44:36;;;;;;;13.65;5.72;;;;;;;;;;5095622;28;20302;-68
2022/03/18 08:47:03;;;;;;;10.98;4.85;;;;;;;;;;5095608;28;20201;-68
2022/03/18 08:49:30;;;;;;;13.60;4.57;;;;;;;;;;5095683;28;20232;-68
2022/03/18 08:51:59;;;;;;;11.45;4.20;;;;;;;;;;5095807;28;20721;-68
2022/03/18 08:54:26;;;;;;;14.95;4.80;;;;;;;;;;5095343;28;20190;-68
2022/03/18 08:56:53;;;;;;;8.70;3.72;;;;;;;;;;5095677;28;20574;-68
2022/03/18 08:59:23;;;;;;;11.55;4.20;;;;;;;;;;5095237;28;20789;-67
2022/03/18 09:01:51;;;;;;;9.13;4.00;;;;;;;;;;5095521;28;20195;-68
2022/03/18 09:04:18;;;;;;;15.23;4.32;;;;;;;;;;5095463;28;20200;-68
2022/03/18 09:06:47;;;;;;;7.18;4.00;;;;;;;;;;5095565;28;20200;-68
2022/03/18 09:09:15;;;;;;;6.30;4.10;;;;;;;;;;5095017;28;20197;-68
2022/03/18 09:11:43;;;;;;;13.85;7.13;;;;;;;;;;5095085;28;20201;-68
2022/03/18 09:14:11;;;;;;;10.10;4.30;;;;;;;;;;5095373;28;20201;-69
2022/03/18 09:16:39;;;;;;;11.05;4.95;;;;;;;;;;5095754;28;20555;-69
2022/03/18 09:19:06;;;;;;;9.77;3.88;;;;;;;;;;5095137;28;20572;-68
2022/03/18 09:21:34;;;;;;;9.70;3.80;;;;;;;;;;5095235;28;20199;-68
2022/03/18 09:24:01;;;;;;;13.38;4.55;;;;;;;;;;5095316;28;20199;-68
2022/03/18 09:26:29;;;;;;;11.75;3.85;;;;;;;;;;5095124;28;20204;-67
2022/03/18 09:28:57;;;;;;;15.18;5.30;;;;;;;;;;5094938;28;20197;-67
2022/03/18 09:31:24;;;;;;;13.48;5.07;;;;;;;;;;5094201;28;20531;-67
2022/03/18 09:33:51;;;;;;;24.88;4.85;;;;;;;;;;5094538;28;20234;-67
2022/03/18 09:36:19;;;;;;;14.73;4.22;;;;;;;;;;5094444;28;20573;-67
2022/03/18 09:38:46;;;;;;;14.30;4.15;;;;;;;;;;5094775;28;20285;-68
2022/03/18 09:41:13;;;;;;;13.60;4.40;;;;;;;;;;5095349;28;20228;-67
2022/03/18 09:43:42;;;;;;;11.20;4.18;;;;;;;;;;5094774;28;20205;-67
2022/03/18 09:46:10;;;;;;;12.20;4.00;;;;;;;;;;5094232;28;20220;-67
2022/03/18 09:48:38;;;;;;;16.95;4.03;;;;;;;;;;5094529;28;20195;-67
2022/03/18 09:51:06;;;;;;;17.77;4.45;;;;;;;;;;5094385;28;20228;-67
2022/03/18 09:53:34;;;;;;;16.77;4.10;;;;;;;;;;5094262;28;20605;-67
2022/03/18 09:56:02;;;;;;;40.92;16.30;;;;;;;;;;5094206;28;20200;-68
2022/03/18 09:58:29;;;;;;;21.10;4.57;;;;;;;;;;5094312;28;20223;-68
2022/03/18 10:00:58;;;;;;;24.33;4.43;;;;;;;;;;5094504;28;20212;-68
2022/03/18 10:03:25;;;;;;;20.55;3.80;;;;;;;;;;5094420;28;20199;-67
2022/03/18 10:05:57;;;;;;;20.20;3.50;;;;;;;;;;5094402;28;20200;-67
2022/03/18 10:08:25;;;;;;;22.38;4.55;;;;;;;;;;5094388;28;20188;-68
2022/03/18 10:10:52;;;;;;;22.20;3.70;;;;;;;;;;5094525;28;20291;-68
2022/03/18 10:13:20;;;;;;;20.17;3.50;;;;;;;;;;5094352;28;20373;-68
2022/03/18 10:15:48;;;;;;;19.98;3.50;;;;;;;;;;5094715;28;20196;-68
2022/03/18 10:18:17;;;;;;;21.38;3.90;;;;;;;;;;5093882;28;20555;-68
2022/03/18 10:20:45;;;;;;;30.17;4.40;;;;;;;;;;5094103;28;20201;-67
2022/03/18 10:23:20;;;;;;;33.55;4.20;;;;;;;;;;5094023;28;20196;-68
2022/03/18 10:25:50;;;;;;;39.00;4.10;;;;;;;;;;5093847;28;20296;-68
2022/03/18 10:28:18;;;;;;;36.92;3.55;;;;;;;;;;5094601;28;20563;-68
2022/03/18 10:30:47;;;;;;;39.15;4.82;;;;;;;;;;5093892;28;20194;-67
2022/03/18 10:33:14;;;;;;;31.05;3.50;;;;;;;;;;5093806;28;20291;-68
2022/03/18 10:38:28;;;;;;;36.15;3.90;;;;;;;;;;5093601;28;20251;-67
2022/03/18 10:40:55;;;;;;;35.50;3.97;;;;;;;;;;5093452;28;20193;-68
2022/03/18 10:43:23;;;;;;;45.60;9.30;;;;;;;;;;5093678;28;20620;-68
2022/03/18 10:46:03;;;;;;;55.53;5.13;;;;;;;;;;5093517;28;20201;-67
2022/03/18 10:48:30;;;;;;;53.60;4.90;;;;;;;;;;5093447;28;20224;-67
2022/03/18 10:51:15;;;;;;;63.00;4.55;;;;;;;;;;5092979;28;20248;-68
2022/03/18 10:53:56;;;;;;;35.43;4.00;;;;;;;;;;5093770;28;20692;-67
2022/03/18 10:56:23;;;;;;;8.80;3.30;;;;;;;;;;5093234;28;20434;-68
2022/03/18 10:58:50;;;;;;;5.60;4.18;;;;;;;;;;5093389;28;20217;-69
2022/03/18 11:01:18;;;;;;;4.80;3.35;;;;;;;;;;5093846;28;20596;-69
2022/03/18 11:03:46;;;;;;;7.80;3.60;;;;;;;;;;5093487;28;20193;-68
2022/03/18 11:06:14;;;;;;;4.60;3.22;;;;;;;;;;5093547;28;20269;-69
2022/03/18 11:08:45;;;;;;;6.65;3.65;;;;;;;;;;5093237;28;20201;-67
2022/03/18 11:11:18;;;;;;;7.17;4.17;;;;;;;;;;5093400;28;20177;-68
2022/03/18 11:13:52;;;;;;;6.13;3.53;;;;;;;;;;5093376;28;20431;-67
2022/03/18 11:16:20;;;;;;;3.83;3.00;;;;;;;;;;5093368;28;20216;-68
2022/03/18 11:18:49;;;;;;;4.95;3.75;;;;;;;;;;5093155;28;20470;-68
2022/03/18 11:21:17;;;;;;;18.02;10.75;;;;;;;;;;5093697;28;20208;-67
2022/03/18 11:23:46;;;;;;;14.50;6.20;;;;;;;;;;5093440;28;20217;-69
2022/03/18 11:26:15;;;;;;;9.52;3.42;;;;;;;;;;5093158;28;20205;-68
2022/03/18 11:28:42;;;;;;;8.93;3.20;;;;;;;;;;5093503;28;20205;-68
2022/03/18 11:31:10;;;;;;;5.47;3.70;;;;;;;;;;5092941;28;20204;-68
2022/03/18 11:33:39;;;;;;;7.38;3.53;;;;;;;;;;5093121;28;20205;-68
2022/03/18 11:36:13;;;;;;;8.60;3.42;;;;;;;;;;5093131;28;20545;-68
2022/03/18 11:39:02;;;;;;;7.05;3.60;;;;;;;;;;5093495;28;20216;-68
2022/03/18 11:41:47;;;;;;;7.18;4.13;;;;;;;;;;5088578;28;20202;-69
2022/03/18 11:44:29;;;;;;;6.27;3.80;;;;;;;;;;5093728;28;20293;-67
2022/03/18 11:46:56;;;;;;;10.13;4.23;;;;;;;;;;5093881;28;20457;-69
2022/03/18 11:49:32;;;;;;;7.90;3.22;;;;;;;;;;5092931;28;20522;-67
2022/03/18 11:52:00;;;;;;;11.48;3.40;;;;;;;;;;5092983;28;20600;-67
2022/03/18 11:54:34;;;;;;;7.33;3.40;;;;;;;;;;5095096;28;20197;-67
2022/03/18 11:57:05;;;;;;;10.20;4.20;;;;;;;;;;5096626;28;20489;-67
2022/03/18 11:59:40;;;;;;;4.93;3.80;;;;;;;;;;5097062;28;20424;-66
2022/03/18 12:02:09;;;;;;;6.83;3.33;;;;;;;;;;5096383;28;20932;-66
2022/03/18 12:04:40;;;;;;;5.50;3.30;;;;;;;;;;5096272;28;20508;-67
2022/03/18 12:07:11;;;;;;;9.43;3.80;;;;;;;;;;5096264;28;20443;-66
2022/03/18 12:09:51;;;;;;;6.13;3.30;;;;;;;;;;5095709;28;20479;-66
2022/03/18 12:12:21;;;;;;;6.33;3.83;;;;;;;;;;5096360;28;20459;-67
2022/03/18 12:14:48;;;;;;;8.40;4.67;;;;;;;;;;5096527;28;20454;-67
2022/03/18 12:17:15;;;;;;;4.53;3.03;;;;;;;;;;5097007;28;20443;-67
2022/03/18 12:19:49;;;;;;;6.93;4.57;;;;;;;;;;5096299;28;20443;-67
2022/03/18 12:22:16;;;;;;;7.33;4.50;;;;;;;;;;5096244;28;20435;-66
2022/03/18 12:24:44;;;;;;;6.27;3.17;;;;;;;;;;5096183;28;20548;-67
2022/03/18 12:27:11;;;;;;;7.60;3.10;;;;;;;;;;5095628;28;20563;-66
2022/03/18 12:29:40;;;;;;;8.40;3.17;;;;;;;;;;5096723;28;20794;-67
2022/03/18 12:32:09;;;;;;;7.33;3.03;;;;;;;;;;5095929;28;20536;-67
2022/03/18 12:34:37;;;;;;;4.80;3.30;;;;;;;;;;5095912;28;20439;-66
2022/03/18 12:37:04;;;;;;;6.60;3.13;;;;;;;;;;5095724;28;20444;-67
2022/03/18 12:39:31;;;;;;;5.23;3.07;;;;;;;;;;5095705;28;20986;-67
2022/03/18 12:42:09;;;;;;;4.40;3.60;;;;;;;;;;5095999;28;20440;-67
2022/03/18 12:44:47;;;;;;;5.95;3.30;;;;;;;;;;5096380;28;20427;-67
2022/03/18 12:47:15;;;;;;;9.15;3.45;;;;;;;;;;5095871;28;20185;-67
2022/03/18 12:49:42;;;;;;;4.90;3.00;;;;;;;;;;5095132;28;20221;-67
2022/03/18 12:52:10;;;;;;;6.37;3.53;;;;;;;;;;5095105;28;20992;-66
2022/03/18 12:54:37;;;;;;;7.30;4.53;;;;;;;;;;5095560;28;20436;-68
2022/03/18 12:57:08;;;;;;;9.27;3.77;;;;;;;;;;5095454;28;20446;-68
2022/03/18 12:59:35;;;;;;;7.87;3.83;;;;;;;;;;5095197;28;21040;-67
2022/03/18 13:02:05;;;;;;;6.40;3.53;;;;;;;;;;5095354;28;20527;-68
2022/03/18 13:04:33;;;;;;;9.13;3.50;;;;;;;;;;5095152;28;20451;-67
2022/03/18 13:07:01;;;;;;;5.77;3.13;;;;;;;;;;5095518;28;20497;-67
2022/03/18 13:09:29;;;;;;;5.77;3.47;;;;;;;;;;5094782;28;20449;-66
2022/03/18 13:11:58;;;;;;;5.50;3.40;;;;;;;;;;5095226;28;20522;-68
2022/03/18 13:14:34;;;;;;;6.60;2.87;;;;;;;;;;5095270;28;20458;-66
2022/03/18 13:17:03;;;;;;;5.33;2.97;;;;;;;;;;5095163;28;20565;-67
2022/03/18 13:19:43;;;;;;;6.57;3.17;;;;;;;;;;5094245;28;20479;-67
2022/03/18 13:22:18;;;;;;;4.27;2.63;;;;;;;;;;5094499;28;20909;-68
2022/03/18 13:24:45;;;;;;;6.53;3.10;;;;;;;;;;5094922;28;20442;-67
2022/03/18 13:27:13;;;;;;;5.40;3.80;;;;;;;;;;5094336;28;20439;-67
2022/03/18 13:35:12;;;;;;;5.93;3.30;;;;;;;;;;5094575;28;20396;-68
2022/03/18 13:37:39;;;;;;;8.77;3.20;;;;;;;;;;5094570;28;20876;-67
2022/03/18 13:40:10;;;;;;;3.63;3.00;;;;;;;;;;5094625;28;20527;-67
2022/03/18 13:42:37;;;;;;;7.10;3.10;;;;;;;;;;5094413;28;20443;-67
2022/03/18 13:45:05;;;;;;;7.23;3.10;;;;;;;;;;5094201;28;20440;-67
2022/03/18 13:47:46;;;;;;;7.83;3.10;;;;;;;;;;5094422;28;20475;-68
2022/03/18 13:50:15;;;;;;;5.03;3.17;;;;;;;;;;5094562;28;20941;-67
2022/03/18 13:52:44;;;;;;;6.80;3.87;;;;;;;;;;5093998;28;20474;-68
2022/03/18 13:55:28;;;;;;;5.90;3.33;;;;;;;;;;5094566;28;20467;-67
2022/03/18 13:57:55;;;;;;;7.23;3.90;;;;;;;;;;5094294;28;20420;-68
2022/03/18 14:00:26;;;;;;;6.77;3.20;;;;;;;;;;5094897;28;20451;-67
2022/03/18 14:03:04;;;;;;;5.20;3.70;;;;;;;;;;5094087;28;20451;-68
2022/03/18 14:05:34;;;;;;;5.87;2.87;;;;;;;;;;5093889;28;20952;-67
2022/03/18 14:08:02;;;;;;;3.00;2.70;;;;;;;;;;5094374;28;20800;-68
2022/03/18 14:10:40;;;;;;;6.00;3.60;;;;;;;;;;5094109;28;20441;-68
2022/03/18 14:13:08;;;;;;;4.43;3.07;;;;;;;;;;5093624;28;20962;-68
2022/03/18 14:15:36;;;;;;;3.20;2.90;;;;;;;;;;5093306;28;20440;-68
2022/03/18 14:18:05;;;;;;;5.87;4.00;;;;;;;;;;5093394;28;20449;-68
2022/03/18 14:20:35;;;;;;;8.43;3.50;;;;;;;;;;5094127;28;20475;-68
2022/03/18 14:23:18;;;;;;;10.30;5.80;;;;;;;;;;5093873;28;20486;-68
2022/03/18 14:25:46;;;;;;;5.43;2.90;;;;;;;;;;5094091;28;20447;-68
2022/03/18 14:28:18;;;;;;;6.57;3.63;;;;;;;;;;5093557;28;20985;-68
2022/03/18 14:30:45;;;;;;;4.30;2.80;;;;;;;;;;5093868;28;20527;-68
2022/03/18 14:33:12;;;;;;;4.40;2.73;;;;;;;;;;5093362;28;20474;-68
2022/03/18 14:35:41;;;;;;;3.07;2.87;;;;;;;;;;5093611;28;20446;-68
2022/03/18 14:38:08;;;;;;;11.30;3.33;;;;;;;;;;5093406;28;20805;-68
2022/03/18 14:40:36;;;;;;;4.60;3.60;;;;;;;;;;5093210;28;20442;-68
2022/03/18 14:43:03;;;;;;;4.97;3.27;;;;;;;;;;5093494;28;20435;-68
2022/03/18 14:45:30;;;;;;;4.57;3.10;;;;;;;;;;5093756;28;20785;-69
2022/03/18 14:47:57;;;;;;;5.73;3.00;;;;;;;;;;5093266;28;20440;-68
2022/03/18 14:50:25;;;;;;;6.00;3.20;;;;;;;;;;5093491;28;20575;-69
2022/03/18 14:52:53;;;;;;;5.37;2.80;;;;;;;;;;5093436;28;20447;-68
2022/03/18 14:58:05;;;;;;;8.10;4.00;;;;;;;;;;5092799;28;20501;-68
2022/03/18 15:00:34;;;;;;;6.10;3.00;;;;;;;;;;5092940;28;20468;-68
2022/03/18 15:03:02;;;;;;;4.00;3.60;;;;;;;;;;5093715;28;20523;-69
2022/03/18 15:05:29;;;;;;;5.30;3.27;;;;;;;;;;5093139;28;20440;-68
2022/03/18 15:07:57;;;;;;;7.70;3.40;;;;;;;;;;5093110;28;20451;-68
2022/03/18 15:10:25;;;;;;;6.00;3.60;;;;;;;;;;5092911;28;20472;-68